Time;durP1;ratioP1;P1;durP2;ratioP2;P2;SDS_P1;SDS_P2;PMS_P1;PMS_P2;Temp;Humidity;BMP_temperature;BMP_pressure;BME280_temperature;BME280_humidity;BME280_pressure;Samples;Min_cycle;Max_cycle;Signal;HPM_P1;HPM_P2
2023/02/13 00:01:56;;;;;;;13.52;9.98;;;3.30;99.90;;;;;;5045512;28;20201;-76
2023/02/13 00:04:43;;;;;;;13.45;9.15;;;3.20;99.90;;;;;;5049707;28;20205;-76
2023/02/13 00:07:29;;;;;;;15.80;9.35;;;3.20;99.90;;;;;;5088262;22;20410;-75
2023/02/13 00:10:17;;;;;;;16.15;10.13;;;3.00;99.90;;;;;;5063550;28;20286;-74
2023/02/13 00:13:05;;;;;;;14.75;10.35;;;3.10;99.90;;;;;;5067572;28;20581;-75
2023/02/13 00:15:59;;;;;;;12.93;9.23;;;3.10;99.90;;;;;;5060666;28;20328;-74
2023/02/13 00:18:45;;;;;;;15.57;9.45;;;3.20;99.90;;;;;;5054825;28;20248;-75
2023/02/13 00:21:32;;;;;;;18.38;11.38;;;3.00;99.90;;;;;;5050278;28;20716;-74
2023/02/13 00:24:18;;;;;;;12.18;8.88;;;3.10;99.90;;;;;;5054774;28;20336;-75
2023/02/13 00:27:04;;;;;;;14.93;10.23;;;3.10;99.90;;;;;;5044299;28;20311;-75
2023/02/13 00:29:50;;;;;;;14.70;9.95;;;3.10;99.90;;;;;;5046979;28;20271;-75
2023/02/13 00:32:35;;;;;;;12.98;10.32;;;3.00;99.90;;;;;;5049675;28;20197;-75
2023/02/13 00:35:21;;;;;;;15.32;9.70;;;3.00;99.90;;;;;;5049700;28;20204;-75
2023/02/13 00:38:08;;;;;;;14.45;10.02;;;3.00;99.90;;;;;;5050570;28;20205;-75
2023/02/13 00:40:54;;;;;;;16.83;10.15;;;3.00;99.90;;;;;;5048744;28;20205;-75
2023/02/13 00:43:40;;;;;;;17.42;10.65;;;2.90;99.90;;;;;;5049598;28;20761;-74
2023/02/13 00:46:26;;;;;;;16.35;10.40;;;3.00;99.90;;;;;;5050260;28;20299;-75
2023/02/13 00:49:11;;;;;;;16.27;10.48;;;2.80;99.90;;;;;;5049112;28;20299;-75
2023/02/13 00:51:57;;;;;;;18.70;12.20;;;2.80;99.90;;;;;;5044597;28;20193;-75
2023/02/13 00:54:45;;;;;;;17.67;10.93;;;2.80;99.90;;;;;;5049924;28;20262;-75
2023/02/13 00:57:30;;;;;;;18.35;11.50;;;2.90;99.90;;;;;;5050531;28;20229;-75
2023/02/13 01:00:17;;;;;;;16.15;9.75;;;2.90;99.90;;;;;;5047521;28;20289;-75
2023/02/13 01:03:02;;;;;;;13.48;9.30;;;2.90;99.90;;;;;;5050990;28;20294;-75
2023/02/13 01:05:48;;;;;;;16.63;9.75;;;3.00;99.90;;;;;;5045641;28;20205;-75
2023/02/13 01:08:34;;;;;;;13.18;9.02;;;2.70;99.90;;;;;;5049159;28;20221;-75
2023/02/13 01:11:21;;;;;;;13.57;8.82;;;2.80;99.90;;;;;;5055054;28;20201;-75
2023/02/13 01:14:07;;;;;;;15.05;9.73;;;2.90;99.90;;;;;;5042381;28;20221;-75
2023/02/13 01:16:52;;;;;;;14.70;9.35;;;2.80;99.90;;;;;;5047092;28;20259;-75
2023/02/13 01:19:40;;;;;;;14.23;9.38;;;2.80;99.90;;;;;;5046228;28;20201;-75
2023/02/13 01:22:26;;;;;;;17.13;9.55;;;2.90;99.90;;;;;;5049065;28;20332;-75
2023/02/13 01:25:12;;;;;;;16.27;10.27;;;2.90;99.90;;;;;;5044703;28;20213;-75
2023/02/13 01:27:59;;;;;;;13.35;9.98;;;2.90;99.90;;;;;;5049966;28;20243;-75
2023/02/13 01:30:44;;;;;;;12.05;8.52;;;2.90;99.90;;;;;;5041871;28;20292;-75
2023/02/13 01:33:30;;;;;;;15.75;10.30;;;2.90;99.90;;;;;;5047231;28;20204;-75
2023/02/13 01:36:16;;;;;;;17.40;9.93;;;2.80;99.90;;;;;;5049059;28;20588;-75
2023/02/13 01:39:02;;;;;;;18.40;10.38;;;2.90;99.90;;;;;;5043599;28;20287;-75
2023/02/13 01:41:47;;;;;;;14.32;10.00;;;2.80;99.90;;;;;;5044057;28;20224;-75
2023/02/13 01:44:55;;;;;;;14.52;9.38;;;2.90;99.90;;;;;;5048405;28;20585;-75
2023/02/13 01:47:44;;;;;;;12.57;8.85;;;2.80;99.90;;;;;;5042537;28;20351;-75
2023/02/13 01:50:36;;;;;;;16.35;10.20;;;2.70;99.90;;;;;;5045184;28;20240;-75
2023/02/13 01:53:27;;;;;;;15.07;9.50;;;2.90;99.90;;;;;;5044646;28;20267;-75
2023/02/13 01:56:18;;;;;;;13.88;9.15;;;2.90;99.90;;;;;;5043941;28;20276;-75
2023/02/13 01:59:09;;;;;;;18.77;9.45;;;2.80;99.90;;;;;;5043168;28;20217;-75
2023/02/13 02:01:58;;;;;;;11.40;8.43;;;2.70;99.90;;;;;;5046061;28;20228;-75
2023/02/13 02:04:45;;;;;;;15.25;10.35;;;2.50;99.90;;;;;;5049331;28;20307;-75
2023/02/13 02:07:32;;;;;;;12.02;8.55;;;2.50;99.90;;;;;;5048068;28;20252;-75
2023/02/13 02:10:20;;;;;;;13.45;9.13;;;2.50;99.90;;;;;;5047739;28;20204;-75
2023/02/13 02:13:09;;;;;;;17.40;9.98;;;2.50;99.90;;;;;;5048885;28;20201;-75
2023/02/13 02:15:55;;;;;;;16.13;10.18;;;2.50;99.90;;;;;;5050748;28;20220;-75
2023/02/13 02:18:42;;;;;;;15.55;10.85;;;2.60;99.90;;;;;;5045494;28;20287;-75
2023/02/13 02:21:47;;;;;;;12.55;8.82;;;2.50;99.90;;;;;;5050901;28;20233;-75
2023/02/13 02:25:15;;;;;;;16.63;9.55;;;2.50;99.90;;;;;;5048856;28;20569;-75
2023/02/13 02:28:29;;;;;;;15.73;9.20;;;2.50;99.90;;;;;;5052660;28;20747;-75
2023/02/13 02:31:47;;;;;;;13.95;8.88;;;2.40;99.90;;;;;;5051293;28;20220;-75
2023/02/13 02:34:47;;;;;;;14.35;9.55;;;2.40;99.90;;;;;;5030051;28;20200;-75
2023/02/13 02:37:46;;;;;;;16.45;10.68;;;2.50;99.90;;;;;;5047895;28;20236;-75
2023/02/13 02:40:41;;;;;;;14.88;9.60;;;2.30;99.90;;;;;;5045318;28;20709;-75
2023/02/13 02:43:40;;;;;;;15.07;10.27;;;2.30;99.90;;;;;;5048417;28;20204;-75
2023/02/13 02:46:34;;;;;;;15.00;9.88;;;2.40;99.90;;;;;;5046232;28;20217;-75
2023/02/13 02:52:33;;;;;;;15.85;9.52;;;2.30;99.90;;;;;;5049995;28;20289;-75
2023/02/13 02:55:30;;;;;;;15.48;9.93;;;2.20;99.90;;;;;;5048576;28;20315;-75
2023/02/13 03:07:55;;;;;;;15.90;10.18;;;2.20;99.90;;;;;;5003378;28;20234;-75
2023/02/13 03:13:48;;;;;;;15.70;9.98;;;2.10;99.90;;;;;;5049716;28;20200;-75
2023/02/13 03:23:13;;;;;;;16.02;10.30;;;2.30;99.90;;;;;;5053169;28;20301;-75
2023/02/13 03:26:32;;;;;;;14.93;10.52;;;2.20;99.90;;;;;;5047446;28;20200;-75
2023/02/13 03:32:51;;;;;;;16.40;10.02;;;2.30;99.90;;;;;;5047244;28;20197;-75
2023/02/13 03:38:55;;;;;;;16.52;9.63;;;2.30;99.90;;;;;;5050846;28;20197;-75
2023/02/13 03:41:47;;;;;;;15.77;11.35;;;2.10;99.90;;;;;;5052120;28;20291;-75
2023/02/13 03:44:37;;;;;;;15.88;9.60;;;2.20;99.90;;;;;;5051943;28;20562;-75
2023/02/13 03:47:23;;;;;;;17.05;10.88;;;2.20;99.90;;;;;;5046177;28;20241;-75
2023/02/13 03:50:10;;;;;;;14.73;8.68;;;2.20;99.90;;;;;;5050632;28;20209;-75
2023/02/13 03:53:00;;;;;;;16.02;9.68;;;2.30;99.90;;;;;;5050695;28;20217;-75
2023/02/13 04:02:03;;;;;;;14.70;10.23;;;2.00;99.90;;;;;;5051423;28;20221;-75
2023/02/13 04:04:54;;;;;;;16.55;10.85;;;1.90;99.90;;;;;;5052565;28;20616;-75
2023/02/13 04:07:39;;;;;;;14.10;9.60;;;1.90;99.90;;;;;;5051692;28;20233;-74
2023/02/13 04:10:31;;;;;;;14.02;9.15;;;1.90;99.90;;;;;;5053415;28;20327;-75
2023/02/13 04:13:24;;;;;;;14.43;10.20;;;2.00;99.90;;;;;;5050294;28;20200;-75
2023/02/13 04:16:15;;;;;;;19.00;9.88;;;2.00;99.90;;;;;;5048042;28;20340;-75
2023/02/13 04:19:02;;;;;;;15.52;9.45;;;1.90;99.90;;;;;;5048914;28;20204;-75
2023/02/13 04:21:54;;;;;;;16.33;8.45;;;1.90;99.90;;;;;;5053553;28;20209;-75
2023/02/13 04:24:40;;;;;;;16.98;9.32;;;2.00;99.90;;;;;;5048691;28;20201;-74
2023/02/13 04:27:27;;;;;;;11.45;7.82;;;2.20;99.90;;;;;;5052651;28;20352;-75
2023/02/13 04:30:16;;;;;;;15.57;9.02;;;2.20;99.90;;;;;;5055688;28;20203;-75
2023/02/13 04:33:01;;;;;;;15.95;9.00;;;2.20;99.90;;;;;;5053903;28;20193;-75
2023/02/13 04:35:47;;;;;;;12.70;9.35;;;2.00;99.90;;;;;;5051293;28;20209;-75
2023/02/13 04:38:32;;;;;;;19.92;9.40;;;2.10;99.90;;;;;;5045224;28;20208;-75
2023/02/13 04:41:18;;;;;;;13.70;8.75;;;2.20;99.90;;;;;;5058741;28;20252;-75
2023/02/13 04:44:04;;;;;;;12.15;8.60;;;2.10;99.90;;;;;;5054219;28;20205;-74
2023/02/13 04:46:51;;;;;;;13.60;9.73;;;2.00;99.90;;;;;;5051658;28;20240;-75
2023/02/13 04:49:37;;;;;;;16.83;9.95;;;2.00;99.90;;;;;;5049367;28;20780;-75
2023/02/13 04:52:23;;;;;;;15.05;9.07;;;2.00;99.90;;;;;;5054086;28;20694;-75
2023/02/13 04:55:09;;;;;;;16.83;10.82;;;1.90;99.90;;;;;;5047357;28;20212;-75
2023/02/13 04:57:55;;;;;;;14.52;9.70;;;1.70;99.90;;;;;;5053161;28;20225;-75
2023/02/13 05:00:41;;;;;;;11.27;8.43;;;1.70;99.90;;;;;;5057345;28;20263;-75
2023/02/13 05:03:28;;;;;;;14.73;9.93;;;1.70;99.90;;;;;;5049679;28;20212;-75
2023/02/13 05:06:14;;;;;;;15.68;9.88;;;1.70;99.90;;;;;;5047471;28;20244;-75
2023/02/13 05:09:00;;;;;;;17.38;11.25;;;1.80;99.90;;;;;;5051458;28;20774;-75
2023/02/13 05:11:45;;;;;;;13.48;9.15;;;1.80;99.90;;;;;;5051918;28;20197;-75
2023/02/13 05:14:31;;;;;;;12.93;8.98;;;1.90;99.90;;;;;;5052468;28;20273;-75
2023/02/13 05:17:16;;;;;;;13.52;8.70;;;1.70;99.90;;;;;;5050509;28;20328;-75
2023/02/13 05:20:04;;;;;;;16.00;10.15;;;1.70;99.90;;;;;;5049518;28;20201;-75
2023/02/13 05:25:55;;;;;;;12.95;8.85;;;1.60;99.90;;;;;;5043570;28;20251;-75
2023/02/13 05:31:44;;;;;;;14.35;9.18;;;1.60;99.90;;;;;;5052780;28;20227;-75
2023/02/13 05:34:30;;;;;;;16.17;9.35;;;1.50;99.90;;;;;;5052147;28;20677;-75
2023/02/13 05:37:17;;;;;;;17.73;9.93;;;1.40;99.90;;;;;;5050553;28;20336;-75
2023/02/13 05:40:02;;;;;;;15.73;10.30;;;1.40;99.90;;;;;;5042904;28;20201;-74
2023/02/13 05:42:48;;;;;;;16.75;9.52;;;1.50;99.90;;;;;;5049435;28;20319;-75
2023/02/13 05:45:33;;;;;;;17.25;9.73;;;1.50;99.90;;;;;;5048441;28;20200;-75
2023/02/13 05:48:19;;;;;;;15.95;9.88;;;1.60;99.90;;;;;;5048815;28;20201;-75
2023/02/13 05:51:05;;;;;;;18.52;9.57;;;1.70;99.90;;;;;;5052494;28;20291;-76
2023/02/13 05:53:52;;;;;;;19.83;12.25;;;1.60;99.90;;;;;;5050988;28;20200;-75
2023/02/13 05:56:37;;;;;;;12.93;9.05;;;1.60;99.90;;;;;;5048763;28;20306;-75
2023/02/13 05:59:23;;;;;;;16.40;10.27;;;1.60;99.90;;;;;;5048044;28;20212;-75
2023/02/13 06:02:08;;;;;;;16.10;10.32;;;1.50;99.90;;;;;;5044903;28;20294;-75
2023/02/13 06:04:54;;;;;;;13.82;9.57;;;1.40;99.90;;;;;;5049652;28;20204;-75
2023/02/13 06:07:40;;;;;;;18.58;9.48;;;1.50;99.90;;;;;;5047153;28;20329;-74
2023/02/13 06:10:27;;;;;;;17.88;10.30;;;1.40;99.90;;;;;;5031743;28;20201;-74
2023/02/13 06:13:13;;;;;;;14.88;10.40;;;1.50;99.90;;;;;;5031830;28;20272;-74
2023/02/13 06:15:58;;;;;;;14.25;9.52;;;1.60;99.90;;;;;;5048872;28;20728;-73
2023/02/13 06:18:43;;;;;;;14.38;10.20;;;1.70;99.90;;;;;;5041084;28;20201;-74
2023/02/13 06:21:29;;;;;;;17.25;10.75;;;1.80;99.90;;;;;;5031282;28;20214;-74
2023/02/13 06:24:15;;;;;;;13.70;9.23;;;1.70;99.90;;;;;;5048583;28;20203;-74
2023/02/13 06:27:02;;;;;;;18.98;11.98;;;1.50;99.90;;;;;;5050818;28;20228;-74
2023/02/13 06:29:48;;;;;;;18.15;10.77;;;1.40;99.90;;;;;;5051130;28;20192;-74
2023/02/13 06:32:34;;;;;;;17.98;11.48;;;1.30;99.90;;;;;;5050865;28;20197;-74
2023/02/13 06:35:19;;;;;;;15.77;10.00;;;1.30;99.90;;;;;;5053283;28;20248;-74
2023/02/13 06:38:05;;;;;;;23.55;12.32;;;1.20;99.90;;;;;;5050019;28;20239;-74
2023/02/13 06:40:51;;;;;;;21.75;11.85;;;1.20;99.90;;;;;;5057865;28;20324;-74
2023/02/13 06:43:38;;;;;;;19.05;12.60;;;1.20;99.90;;;;;;5057615;28;20191;-74
2023/02/13 06:46:24;;;;;;;19.08;12.73;;;1.20;99.90;;;;;;5063921;28;20227;-74
2023/02/13 06:49:09;;;;;;;18.25;12.10;;;1.20;99.90;;;;;;5055178;28;20196;-74
2023/02/13 06:51:55;;;;;;;23.52;13.35;;;1.30;99.90;;;;;;5057728;28;20328;-74
2023/02/13 06:54:41;;;;;;;19.08;11.68;;;1.40;99.90;;;;;;5047879;28;20220;-73
2023/02/13 06:57:28;;;;;;;18.63;11.68;;;1.50;99.90;;;;;;5072726;28;20232;-74
2023/02/13 07:00:17;;;;;;;18.00;12.13;;;1.50;99.90;;;;;;5064554;28;20613;-74
2023/02/13 07:03:04;;;;;;;18.25;11.88;;;1.50;99.90;;;;;;5057786;28;20736;-74
2023/02/13 07:05:50;;;;;;;18.75;11.77;;;1.60;99.90;;;;;;5049864;28;20203;-74
2023/02/13 07:08:36;;;;;;;23.00;12.10;;;1.70;99.90;;;;;;5059587;28;20197;-73
2023/02/13 07:11:24;;;;;;;18.13;10.60;;;1.60;99.90;;;;;;5055003;28;20208;-74
2023/02/13 07:14:10;;;;;;;17.85;11.88;;;1.60;99.90;;;;;;5037646;28;20381;-74
2023/02/13 07:16:57;;;;;;;17.48;11.90;;;1.60;99.90;;;;;;5040964;28;20221;-74
2023/02/13 07:19:43;;;;;;;18.58;10.25;;;1.60;99.90;;;;;;5057207;28;20576;-74
2023/02/13 07:22:30;;;;;;;17.77;11.55;;;1.70;99.90;;;;;;5056714;28;20213;-74
2023/02/13 07:25:15;;;;;;;18.58;12.02;;;1.60;99.90;;;;;;5056673;28;20204;-74
2023/02/13 07:28:02;;;;;;;18.27;10.98;;;1.60;99.90;;;;;;5057992;28;20224;-74
2023/02/13 07:30:48;;;;;;;20.25;11.60;;;1.70;99.90;;;;;;5049193;28;20212;-73
2023/02/13 07:33:35;;;;;;;19.38;12.05;;;1.70;99.90;;;;;;5056625;28;20636;-73
2023/02/13 07:36:21;;;;;;;19.90;11.43;;;1.80;99.90;;;;;;5052430;28;20237;-73
2023/02/13 07:39:07;;;;;;;17.25;10.95;;;1.90;99.90;;;;;;5052755;28;20264;-73
2023/02/13 07:41:52;;;;;;;20.55;11.65;;;2.00;99.90;;;;;;5053254;28;20216;-73
2023/02/13 07:44:38;;;;;;;19.33;12.18;;;2.00;99.90;;;;;;5056461;28;20736;-73
2023/02/13 07:47:23;;;;;;;17.85;12.02;;;2.00;99.90;;;;;;5057010;28;20725;-73
2023/02/13 07:50:12;;;;;;;20.55;12.52;;;2.00;99.90;;;;;;5047626;28;20196;-73
2023/02/13 07:52:59;;;;;;;22.30;14.00;;;2.10;99.90;;;;;;5051823;28;20777;-73
2023/02/13 07:55:45;;;;;;;19.63;11.95;;;2.20;99.90;;;;;;5051738;28;20339;-73
2023/02/13 07:58:30;;;;;;;20.05;12.25;;;2.20;99.90;;;;;;5056342;28;20231;-74
2023/02/13 08:01:18;;;;;;;21.95;13.02;;;2.30;99.90;;;;;;5041461;28;20286;-73
2023/02/13 08:04:04;;;;;;;17.88;11.77;;;2.40;99.90;;;;;;5047557;28;20785;-73
2023/02/13 08:06:51;;;;;;;25.70;13.10;;;2.40;99.90;;;;;;5049820;28;20790;-74
2023/02/13 08:12:41;;;;;;;17.80;12.27;;;2.60;99.90;;;;;;5051223;28;20272;-74
2023/02/13 08:15:27;;;;;;;23.15;12.63;;;2.80;99.90;;;;;;5049905;28;20617;-74
2023/02/13 08:18:12;;;;;;;25.77;15.10;;;2.80;99.90;;;;;;5050298;28;20197;-74
2023/02/13 08:20:58;;;;;;;20.33;15.00;;;2.90;99.90;;;;;;5045149;28;20205;-73
2023/02/13 08:23:45;;;;;;;22.88;15.77;;;2.90;99.90;;;;;;5051428;28;20708;-74
2023/02/13 08:26:31;;;;;;;27.58;15.95;;;2.90;99.90;;;;;;5053069;28;20220;-74
2023/02/13 08:29:17;;;;;;;24.23;15.85;;;3.00;99.90;;;;;;5053067;28;20694;-73
2023/02/13 08:32:02;;;;;;;27.75;17.00;;;3.00;99.90;;;;;;5052844;28;20193;-74
2023/02/13 08:34:48;;;;;;;26.33;15.20;;;3.00;99.90;;;;;;5047747;28;20289;-73
2023/02/13 08:37:34;;;;;;;24.23;16.40;;;3.20;99.90;;;;;;5048460;28;20643;-73
2023/02/13 08:40:21;;;;;;;27.95;19.20;;;3.30;99.90;;;;;;5045428;28;20201;-74
2023/02/13 08:43:07;;;;;;;26.02;17.60;;;3.30;99.90;;;;;;5045088;28;20224;-73
2023/02/13 08:45:52;;;;;;;31.88;17.42;;;3.50;99.90;;;;;;5056216;28;20720;-74
2023/02/13 08:48:38;;;;;;;27.17;15.00;;;3.60;99.90;;;;;;5050785;28;20335;-73
2023/02/13 08:51:24;;;;;;;26.15;15.40;;;3.70;99.90;;;;;;5053335;28;20228;-74
2023/02/13 08:54:11;;;;;;;34.85;20.17;;;3.90;99.90;;;;;;5048662;28;20201;-73
2023/02/13 08:56:58;;;;;;;25.25;18.00;;;4.00;99.90;;;;;;5040167;28;20236;-73
2023/02/13 08:59:43;;;;;;;26.25;18.27;;;4.10;99.90;;;;;;5048252;28;20196;-73
2023/02/13 09:02:29;;;;;;;28.17;19.77;;;4.20;99.90;;;;;;5051926;28;20213;-73
2023/02/13 09:05:15;;;;;;;27.70;18.42;;;4.30;99.90;;;;;;5051202;28;20209;-73
2023/02/13 09:08:02;;;;;;;27.92;18.42;;;4.30;99.90;;;;;;5044836;28;20228;-73
2023/02/13 09:10:55;;;;;;;27.23;17.88;;;4.40;99.90;;;;;;5051694;28;20295;-73
2023/02/13 09:13:42;;;;;;;27.55;18.80;;;4.50;99.90;;;;;;5051484;28;20591;-73
2023/02/13 09:16:27;;;;;;;27.85;19.65;;;4.70;99.90;;;;;;5047897;28;20328;-73
2023/02/13 09:19:13;;;;;;;25.67;17.23;;;4.80;99.90;;;;;;5052272;28;20201;-73
2023/02/13 09:21:59;;;;;;;24.42;16.80;;;5.00;99.90;;;;;;5051371;28;20328;-73
2023/02/13 09:24:44;;;;;;;29.03;16.50;;;5.20;99.90;;;;;;5053690;28;20345;-73
2023/02/13 09:27:30;;;;;;;25.92;17.08;;;5.30;99.90;;;;;;5051522;28;20467;-73
2023/02/13 09:30:22;;;;;;;25.27;16.65;;;5.40;99.90;;;;;;5048152;28;20211;-74
2023/02/13 09:33:10;;;;;;;20.70;15.70;;;5.60;99.90;;;;;;5049448;28;20244;-73
2023/02/13 09:35:56;;;;;;;25.88;15.40;;;5.70;99.90;;;;;;5046889;28;20558;-74
2023/02/13 09:38:42;;;;;;;27.15;17.60;;;5.90;99.90;;;;;;5048500;28;20566;-74
2023/02/13 09:41:31;;;;;;;25.13;17.20;;;6.00;99.90;;;;;;5048474;28;20209;-74
2023/02/13 09:44:33;;;;;;;22.87;16.23;;;6.20;99.90;;;;;;5044101;28;20310;-73
2023/02/13 09:47:28;;;;;;;23.17;16.55;;;6.40;99.90;;;;;;5047121;28;20598;-73
2023/02/13 09:50:21;;;;;;;23.50;15.05;;;6.60;99.90;;;;;;5051561;28;20559;-74
2023/02/13 09:53:06;;;;;;;23.27;15.00;;;6.80;99.90;;;;;;5050721;28;20197;-73
2023/02/13 09:56:01;;;;;;;22.70;13.70;;;7.00;99.90;;;;;;5050246;28;20478;-74
2023/02/13 09:58:48;;;;;;;20.67;14.20;;;7.20;99.90;;;;;;5051198;28;21107;-74
2023/02/13 10:01:38;;;;;;;22.07;14.90;;;7.50;99.90;;;;;;5050957;28;20801;-74
2023/02/13 10:04:34;;;;;;;29.20;15.40;;;7.70;99.90;;;;;;5041579;28;21183;-74
2023/02/13 10:07:27;;;;;;;18.63;14.17;;;8.00;99.90;;;;;;5040019;28;20527;-74
2023/02/13 10:10:21;;;;;;;20.13;12.43;;;8.30;99.90;;;;;;5050206;28;20518;-73
2023/02/13 10:13:25;;;;;;;16.30;10.73;;;8.60;99.90;;;;;;5044551;28;20428;-74
2023/02/13 10:16:14;;;;;;;20.50;12.70;;;8.90;99.90;;;;;;5049564;28;20454;-73
2023/02/13 10:19:05;;;;;;;17.93;10.43;;;9.20;99.90;;;;;;5041080;28;20480;-74
2023/02/13 10:21:58;;;;;;;17.90;11.30;;;9.50;99.90;;;;;;5049954;28;20391;-74
2023/02/13 10:24:47;;;;;;;18.00;11.10;;;9.70;99.90;;;;;;5049850;28;20451;-74
2023/02/13 10:27:38;;;;;;;14.73;10.70;;;9.90;99.90;;;;;;5051060;28;20440;-74
2023/02/13 10:30:27;;;;;;;15.37;10.70;;;10.20;99.90;;;;;;5045016;28;20897;-74
2023/02/13 10:33:20;;;;;;;16.50;11.20;;;10.30;99.90;;;;;;5048348;28;20582;-73
2023/02/13 10:36:14;;;;;;;12.27;10.23;;;10.50;99.90;;;;;;5048133;28;20489;-73
2023/02/13 10:39:02;;;;;;;13.00;8.13;;;10.60;99.90;;;;;;5050636;28;20797;-73
2023/02/13 10:41:52;;;;;;;13.33;9.50;;;10.80;99.90;;;;;;5043347;28;20403;-74
2023/02/13 10:44:48;;;;;;;12.90;9.50;;;11.00;99.90;;;;;;5047745;28;20437;-74
2023/02/13 10:47:51;;;;;;;14.53;8.27;;;11.30;99.90;;;;;;5048358;28;20488;-74
2023/02/13 10:50:44;;;;;;;14.37;9.67;;;11.40;99.90;;;;;;5048645;28;20439;-74
2023/02/13 10:53:43;;;;;;;11.87;8.00;;;11.60;98.80;;;;;;5050198;28;20414;-74
2023/02/13 10:56:36;;;;;;;13.20;7.30;;;11.90;99.90;;;;;;5044718;28;20443;-73
2023/02/13 10:59:42;;;;;;;16.20;7.30;;;12.20;91.40;;;;;;5041565;28;20452;-72
2023/02/13 11:02:30;;;;;;;9.07;6.47;;;12.50;90.00;;;;;;5042439;28;20424;-74
2023/02/13 11:05:19;;;;;;;8.83;6.73;;;12.70;82.00;;;;;;5044709;28;20414;-74
2023/02/13 11:08:14;;;;;;;10.40;6.40;;;13.30;81.00;;;;;;5041620;28;20426;-73
2023/02/13 11:11:01;;;;;;;14.10;7.77;;;13.60;79.50;;;;;;5039894;28;20952;-74
2023/02/13 11:14:07;;;;;;;8.07;6.20;;;13.70;69.70;;;;;;5047591;28;20418;-74
2023/02/13 11:17:00;;;;;;;12.77;7.27;;;13.80;67.30;;;;;;5044265;28;20968;-74
2023/02/13 11:19:50;;;;;;;9.50;6.63;;;14.10;62.80;;;;;;5045014;28;20421;-74
2023/02/13 11:22:38;;;;;;;9.17;6.37;;;14.10;63.50;;;;;;5044523;28;20987;-74
2023/02/13 11:25:27;;;;;;;9.30;5.67;;;14.00;63.00;;;;;;5047065;28;20583;-74
2023/02/13 11:28:17;;;;;;;7.60;5.67;;;13.90;63.50;;;;;;5046717;28;20446;-74
2023/02/13 11:31:14;;;;;;;11.00;6.07;;;13.80;61.60;;;;;;5054473;28;20551;-74
2023/02/13 11:34:22;;;;;;;9.80;6.20;;;13.60;62.30;;;;;;5049055;28;20410;-74
2023/02/13 11:37:16;;;;;;;8.10;5.27;;;13.80;61.60;;;;;;5047739;28;20445;-74
2023/02/13 11:40:28;;;;;;;7.30;5.17;;;14.00;60.00;;;;;;5046953;28;20443;-74
2023/02/13 11:43:20;;;;;;;10.67;5.87;;;14.10;60.10;;;;;;5055680;28;20467;-74
2023/02/13 11:46:08;;;;;;;10.10;5.83;;;14.20;58.60;;;;;;5041794;28;20439;-74
2023/02/13 11:49:04;;;;;;;7.07;5.10;;;14.20;56.50;;;;;;5049440;28;20485;-74
2023/02/13 11:51:52;;;;;;;7.53;4.97;;;14.10;57.80;;;;;;5051120;28;20451;-74
2023/02/13 11:54:40;;;;;;;6.50;4.20;;;14.20;56.10;;;;;;5046414;28;20899;-73
2023/02/13 11:57:31;;;;;;;6.00;4.77;;;14.10;58.90;;;;;;5052931;28;20547;-73
2023/02/13 12:00:31;;;;;;;9.33;6.20;;;14.00;58.50;;;;;;5057381;28;20398;-74
2023/02/13 12:03:28;;;;;;;7.50;4.97;;;13.90;58.70;;;;;;5048139;28;20527;-74
2023/02/13 12:06:17;;;;;;;7.93;5.73;;;13.90;57.30;;;;;;5047208;28;20986;-74
2023/02/13 12:09:02;;;;;;;15.23;5.33;;;13.90;57.00;;;;;;5047176;28;20438;-74
2023/02/13 12:11:51;;;;;;;8.50;5.60;;;13.80;56.00;;;;;;5052873;28;20440;-74
2023/02/13 12:14:40;;;;;;;8.50;5.40;;;13.80;56.20;;;;;;5052330;28;20447;-75
2023/02/13 12:17:29;;;;;;;7.80;4.60;;;13.80;56.60;;;;;;5043982;28;20490;-74
2023/02/13 12:20:16;;;;;;;7.53;4.60;;;13.80;56.30;;;;;;5052779;28;20410;-74
2023/02/13 12:23:12;;;;;;;7.03;4.10;;;13.70;53.30;;;;;;5051459;28;20550;-74
2023/02/13 12:26:13;;;;;;;7.20;4.87;;;13.90;53.90;;;;;;5050632;28;20792;-74
2023/02/13 12:29:48;;;;;;;7.10;4.30;;;13.90;52.70;;;;;;5040261;28;20455;-74
2023/02/13 12:32:45;;;;;;;7.33;4.30;;;14.10;52.10;;;;;;5050317;28;20406;-74
2023/02/13 12:35:48;;;;;;;7.83;4.63;;;14.30;53.80;;;;;;5048770;28;20432;-74
2023/02/13 12:38:58;;;;;;;9.60;6.40;;;14.60;49.80;;;;;;5049838;28;20473;-74
2023/02/13 12:41:54;;;;;;;14.33;9.07;;;14.90;51.60;;;;;;5056560;28;20945;-74
2023/02/13 12:45:07;;;;;;;13.07;9.53;;;15.10;55.40;;;;;;5050959;28;20454;-74
2023/02/13 12:48:11;;;;;;;17.40;10.60;;;15.00;53.90;;;;;;5046215;28;20863;-75
2023/02/13 12:51:06;;;;;;;13.50;9.77;;;14.90;54.70;;;;;;5050534;28;20405;-74
2023/02/13 12:54:17;;;;;;;13.93;9.50;;;14.80;55.70;;;;;;5045069;28;20434;-74
2023/02/13 12:57:23;;;;;;;8.60;6.63;;;14.90;55.10;;;;;;5044722;28;20467;-75
2023/02/13 13:00:30;;;;;;;11.70;6.20;;;14.70;51.40;;;;;;5055016;28;20441;-74
2023/02/13 13:03:37;;;;;;;10.00;7.20;;;15.00;51.90;;;;;;5051998;28;20571;-74
2023/02/13 13:06:41;;;;;;;11.90;7.43;;;15.60;47.50;;;;;;5050425;28;20459;-74
2023/02/13 13:09:54;;;;;;;9.50;6.57;;;15.70;48.80;;;;;;5050038;28;20446;-74
2023/02/13 13:12:50;;;;;;;26.40;7.90;;;15.40;47.30;;;;;;5045136;28;20451;-75
2023/02/13 13:15:44;;;;;;;11.37;8.30;;;15.70;49.90;;;;;;5043786;28;20442;-74
2023/02/13 13:18:40;;;;;;;10.70;7.40;;;16.20;48.00;;;;;;5042779;28;20452;-74
2023/02/13 13:21:35;;;;;;;15.37;7.43;;;16.80;45.00;;;;;;5045584;28;20452;-75
2023/02/13 13:24:35;;;;;;;11.70;7.60;;;16.90;43.00;;;;;;5046335;28;20525;-75
2023/02/13 13:27:26;;;;;;;12.50;8.50;;;17.40;42.40;;;;;;5039108;28;20438;-74
2023/02/13 13:30:17;;;;;;;13.83;9.83;;;17.20;42.50;;;;;;5041069;28;20974;-75
2023/02/13 13:33:07;;;;;;;11.90;7.60;;;17.00;42.30;;;;;;5044668;28;20421;-74
2023/02/13 13:36:02;;;;;;;11.57;8.20;;;17.10;42.90;;;;;;5049464;28;20590;-74
2023/02/13 13:38:57;;;;;;;11.27;8.67;;;17.40;41.20;;;;;;5043107;28;20523;-75
2023/02/13 13:41:48;;;;;;;14.53;8.73;;;17.90;39.50;;;;;;5046921;28;20506;-75
2023/02/13 13:44:52;;;;;;;10.30;8.10;;;17.70;38.80;;;;;;5047474;28;20465;-74
2023/02/13 13:47:50;;;;;;;12.93;8.50;;;17.30;39.70;;;;;;5036439;28;20537;-75
2023/02/13 13:50:41;;;;;;;11.20;8.07;;;17.30;39.60;;;;;;5044452;28;21372;-75
2023/02/13 13:53:27;;;;;;;11.07;8.47;;;17.10;40.20;;;;;;5046446;28;20445;-74
2023/02/13 13:56:12;;;;;;;14.43;8.30;;;17.10;39.20;;;;;;5042743;28;21012;-74
2023/02/13 13:58:57;;;;;;;11.23;8.00;;;16.90;40.00;;;;;;5052995;28;20451;-75
2023/02/13 14:01:45;;;;;;;12.47;7.60;;;17.00;40.00;;;;;;5049549;28;20522;-74
2023/02/13 14:04:40;;;;;;;9.20;7.03;;;17.00;41.10;;;;;;5047777;28;20479;-75
2023/02/13 14:07:26;;;;;;;15.10;6.33;;;16.90;39.70;;;;;;5044270;28;20589;-74
2023/02/13 14:10:59;;;;;;;16.30;10.40;;;17.10;39.50;;;;;;5048131;28;20447;-74
2023/02/13 14:13:44;;;;;;;8.47;6.43;;;17.40;36.80;;;;;;5046949;28;20433;-74
2023/02/13 14:16:41;;;;;;;9.20;7.20;;;17.70;36.50;;;;;;5043771;28;20440;-75
2023/02/13 14:19:31;;;;;;;8.60;6.53;;;17.60;36.10;;;;;;5045045;28;20591;-75
2023/02/13 14:22:31;;;;;;;11.00;7.67;;;17.60;36.90;;;;;;5040793;28;20418;-75
2023/02/13 14:25:24;;;;;;;10.67;6.60;;;17.10;36.50;;;;;;5042208;28;20605;-75
2023/02/13 14:28:23;;;;;;;10.73;7.93;;;16.30;38.30;;;;;;5040189;28;20430;-74
2023/02/13 14:31:21;;;;;;;9.27;6.77;;;15.80;42.30;;;;;;5048078;28;20473;-75
2023/02/13 14:34:09;;;;;;;8.93;5.97;;;15.10;45.00;;;;;;5046585;28;20439;-74
2023/02/13 14:37:06;;;;;;;10.00;6.10;;;14.80;47.80;;;;;;5042338;28;20475;-74
2023/02/13 14:40:30;;;;;;;10.30;5.80;;;14.60;50.60;;;;;;5046371;28;20442;-74
2023/02/13 14:43:44;;;;;;;9.00;5.13;;;14.50;52.80;;;;;;4982425;28;20573;-74
2023/02/13 14:46:36;;;;;;;10.70;5.90;;;13.90;56.90;;;;;;4980357;28;20478;-74
2023/02/13 14:49:25;;;;;;;8.50;5.67;;;13.30;61.70;;;;;;5043657;28;20939;-74
2023/02/13 14:52:18;;;;;;;10.43;5.23;;;12.90;66.20;;;;;;5043751;28;20418;-74
2023/02/13 14:55:07;;;;;;;8.73;5.90;;;12.60;70.70;;;;;;5036053;28;20803;-74
2023/02/13 14:58:04;;;;;;;9.63;6.37;;;12.40;73.10;;;;;;5049856;28;20492;-75
2023/02/13 15:00:54;;;;;;;8.00;5.10;;;12.20;74.60;;;;;;5043366;28;20530;-74
2023/02/13 15:03:47;;;;;;;8.63;5.70;;;11.90;78.30;;;;;;5045134;28;20430;-74
2023/02/13 15:06:37;;;;;;;6.73;5.70;;;11.70;81.40;;;;;;5046279;28;20492;-74
2023/02/13 15:09:32;;;;;;;6.60;5.00;;;11.80;81.60;;;;;;5048527;28;20444;-74
2023/02/13 15:12:33;;;;;;;9.17;6.20;;;11.70;82.10;;;;;;5046860;28;20439;-74
2023/02/13 15:15:25;;;;;;;7.23;5.43;;;11.40;83.40;;;;;;5048463;28;20419;-74
2023/02/13 15:18:18;;;;;;;7.70;5.70;;;11.30;85.80;;;;;;5045542;28;20431;-74
2023/02/13 15:21:04;;;;;;;9.80;6.27;;;11.10;85.60;;;;;;5044473;28;20855;-74
2023/02/13 15:23:54;;;;;;;6.70;5.53;;;11.00;85.50;;;;;;5049336;28;21050;-74
2023/02/13 15:26:41;;;;;;;13.90;6.00;;;10.80;87.10;;;;;;5045564;28;20569;-74